sensor_id;sensor_type;location;lat;lon;timestamp;temperature;humidity
33093;DHT22;19456;46.104;12.908;2023-03-22T00:01:57;12.10;99.90
33093;DHT22;19456;46.104;12.908;2023-03-22T00:04:23;12.10;99.90
33093;DHT22;19456;46.104;12.908;2023-03-22T00:06:48;12.00;99.90
33093;DHT22;19456;46.104;12.908;2023-03-22T00:09:14;11.80;99.90
33093;DHT22;19456;46.104;12.908;2023-03-22T00:11:39;11.80;99.90
33093;DHT22;19456;46.104;12.908;2023-03-22T00:14:05;11.70;99.90
33093;DHT22;19456;46.104;12.908;2023-03-22T00:16:31;11.80;99.90
33093;DHT22;19456;46.104;12.908;2023-03-22T00:18:56;11.80;99.90
33093;DHT22;19456;46.104;12.908;2023-03-22T00:21:22;11.80;99.90
33093;DHT22;19456;46.104;12.908;2023-03-22T00:23:47;11.80;99.90
33093;DHT22;19456;46.104;12.908;2023-03-22T00:26:13;11.80;99.90
33093;DHT22;19456;46.104;12.908;2023-03-22T00:28:39;11.90;99.90
33093;DHT22;19456;46.104;12.908;2023-03-22T00:31:05;12.00;99.90
33093;DHT22;19456;46.104;12.908;2023-03-22T00:33:31;12.00;99.90
33093;DHT22;19456;46.104;12.908;2023-03-22T00:35:58;12.10;99.90
33093;DHT22;19456;46.104;12.908;2023-03-22T00:38:24;12.10;99.90
33093;DHT22;19456;46.104;12.908;2023-03-22T00:40:50;12.10;99.90
33093;DHT22;19456;46.104;12.908;2023-03-22T00:43:15;12.10;99.90
33093;DHT22;19456;46.104;12.908;2023-03-22T00:45:41;12.10;99.90
33093;DHT22;19456;46.104;12.908;2023-03-22T00:48:07;12.20;99.90
33093;DHT22;19456;46.104;12.908;2023-03-22T00:50:33;12.10;99.90
33093;DHT22;19456;46.104;12.908;2023-03-22T00:52:59;12.10;99.90
33093;DHT22;19456;46.104;12.908;2023-03-22T00:55:25;12.10;99.90
33093;DHT22;19456;46.104;12.908;2023-03-22T00:57:50;12.20;99.90
33093;DHT22;19456;46.104;12.908;2023-03-22T01:00:16;12.20;99.90
33093;DHT22;19456;46.104;12.908;2023-03-22T01:02:42;12.20;99.90
33093;DHT22;19456;46.104;12.908;2023-03-22T01:05:08;12.20;99.90
33093;DHT22;19456;46.104;12.908;2023-03-22T01:07:34;12.20;99.90
33093;DHT22;19456;46.104;12.908;2023-03-22T01:10:03;12.20;99.90
33093;DHT22;19456;46.104;12.908;2023-03-22T01:12:29;12.30;99.90
33093;DHT22;19456;46.104;12.908;2023-03-22T01:14:55;12.30;99.90
33093;DHT22;19456;46.104;12.908;2023-03-22T01:17:20;12.30;99.90
33093;DHT22;19456;46.104;12.908;2023-03-22T01:19:46;12.50;99.90
33093;DHT22;19456;46.104;12.908;2023-03-22T01:22:12;12.40;99.90
33093;DHT22;19456;46.104;12.908;2023-03-22T01:24:37;12.50;99.90
33093;DHT22;19456;46.104;12.908;2023-03-22T01:27:03;12.50;99.90
33093;DHT22;19456;46.104;12.908;2023-03-22T01:29:28;12.60;99.90
33093;DHT22;19456;46.104;12.908;2023-03-22T01:31:55;12.70;99.90
33093;DHT22;19456;46.104;12.908;2023-03-22T01:34:21;12.80;99.90
33093;DHT22;19456;46.104;12.908;2023-03-22T01:36:46;12.80;99.90
33093;DHT22;19456;46.104;12.908;2023-03-22T01:39:12;12.80;99.90
33093;DHT22;19456;46.104;12.908;2023-03-22T01:41:37;12.80;99.90
33093;DHT22;19456;46.104;12.908;2023-03-22T01:46:31;12.80;99.90
33093;DHT22;19456;46.104;12.908;2023-03-22T01:48:57;12.80;99.90
33093;DHT22;19456;46.104;12.908;2023-03-22T01:51:23;12.90;99.90
33093;DHT22;19456;46.104;12.908;2023-03-22T01:53:53;12.90;99.90
33093;DHT22;19456;46.104;12.908;2023-03-22T01:56:21;12.90;99.90
33093;DHT22;19456;46.104;12.908;2023-03-22T01:58:48;13.00;99.90
33093;DHT22;19456;46.104;12.908;2023-03-22T02:01:14;13.00;99.90
33093;DHT22;19456;46.104;12.908;2023-03-22T02:06:12;13.00;99.90
33093;DHT22;19456;46.104;12.908;2023-03-22T02:08:38;13.00;99.90
33093;DHT22;19456;46.104;12.908;2023-03-22T02:11:05;12.90;99.90
33093;DHT22;19456;46.104;12.908;2023-03-22T02:29:26;12.40;99.90
33093;DHT22;19456;46.104;12.908;2023-03-22T02:45:17;12.20;99.90
33093;DHT22;19456;46.104;12.908;2023-03-22T02:50:40;12.00;99.90
33093;DHT22;19456;46.104;12.908;2023-03-22T02:53:15;12.10;99.90
33093;DHT22;19456;46.104;12.908;2023-03-22T02:58:11;12.00;99.90
33093;DHT22;19456;46.104;12.908;2023-03-22T03:00:39;11.90;99.90
33093;DHT22;19456;46.104;12.908;2023-03-22T03:03:06;11.80;99.90
33093;DHT22;19456;46.104;12.908;2023-03-22T03:05:38;11.80;99.90
33093;DHT22;19456;46.104;12.908;2023-03-22T03:08:04;11.60;99.90
33093;DHT22;19456;46.104;12.908;2023-03-22T03:10:30;11.40;99.90
33093;DHT22;19456;46.104;12.908;2023-03-22T03:12:56;11.30;99.90
33093;DHT22;19456;46.104;12.908;2023-03-22T03:15:22;11.30;99.90
33093;DHT22;19456;46.104;12.908;2023-03-22T03:28:39;11.40;99.90
33093;DHT22;19456;46.104;12.908;2023-03-22T03:31:15;11.50;99.90
33093;DHT22;19456;46.104;12.908;2023-03-22T03:33:46;11.60;99.90
33093;DHT22;19456;46.104;12.908;2023-03-22T03:36:13;11.60;99.90
33093;DHT22;19456;46.104;12.908;2023-03-22T03:38:41;11.70;99.90
33093;DHT22;19456;46.104;12.908;2023-03-22T03:41:09;11.80;99.90
33093;DHT22;19456;46.104;12.908;2023-03-22T03:43:36;11.70;99.90
33093;DHT22;19456;46.104;12.908;2023-03-22T03:46:03;11.70;99.90
33093;DHT22;19456;46.104;12.908;2023-03-22T03:48:31;11.80;99.90
33093;DHT22;19456;46.104;12.908;2023-03-22T03:50:57;11.80;99.90
33093;DHT22;19456;46.104;12.908;2023-03-22T03:53:24;11.80;99.90
33093;DHT22;19456;46.104;12.908;2023-03-22T03:55:50;11.90;99.90
33093;DHT22;19456;46.104;12.908;2023-03-22T03:58:16;11.90;99.90
33093;DHT22;19456;46.104;12.908;2023-03-22T04:00:42;11.80;99.90
33093;DHT22;19456;46.104;12.908;2023-03-22T04:03:07;11.70;99.90
33093;DHT22;19456;46.104;12.908;2023-03-22T04:05:33;11.60;99.90
33093;DHT22;19456;46.104;12.908;2023-03-22T04:07:59;11.60;99.90
33093;DHT22;19456;46.104;12.908;2023-03-22T04:10:25;11.50;99.90
33093;DHT22;19456;46.104;12.908;2023-03-22T04:12:50;11.50;99.90
33093;DHT22;19456;46.104;12.908;2023-03-22T04:15:16;11.50;99.90
33093;DHT22;19456;46.104;12.908;2023-03-22T04:17:42;11.40;99.90
33093;DHT22;19456;46.104;12.908;2023-03-22T04:20:08;11.40;99.90
33093;DHT22;19456;46.104;12.908;2023-03-22T04:22:35;11.50;99.90
33093;DHT22;19456;46.104;12.908;2023-03-22T04:25:03;11.50;99.90
33093;DHT22;19456;46.104;12.908;2023-03-22T04:27:29;11.50;99.90
33093;DHT22;19456;46.104;12.908;2023-03-22T04:29:54;11.50;99.90
33093;DHT22;19456;46.104;12.908;2023-03-22T04:32:20;11.40;99.90
33093;DHT22;19456;46.104;12.908;2023-03-22T04:34:49;11.40;99.90
33093;DHT22;19456;46.104;12.908;2023-03-22T04:37:15;11.40;99.90
33093;DHT22;19456;46.104;12.908;2023-03-22T04:39:41;11.40;99.90
33093;DHT22;19456;46.104;12.908;2023-03-22T04:42:07;11.30;99.90
33093;DHT22;19456;46.104;12.908;2023-03-22T04:44:33;11.20;99.90
33093;DHT22;19456;46.104;12.908;2023-03-22T04:46:58;11.10;99.90
33093;DHT22;19456;46.104;12.908;2023-03-22T04:49:24;11.20;99.90
33093;DHT22;19456;46.104;12.908;2023-03-22T04:51:51;11.20;99.90
33093;DHT22;19456;46.104;12.908;2023-03-22T04:54:17;11.30;99.90
33093;DHT22;19456;46.104;12.908;2023-03-22T04:56:42;11.30;99.90
33093;DHT22;19456;46.104;12.908;2023-03-22T04:59:08;11.20;99.90
33093;DHT22;19456;46.104;12.908;2023-03-22T05:01:35;11.20;99.90
33093;DHT22;19456;46.104;12.908;2023-03-22T05:04:02;11.10;99.90
33093;DHT22;19456;46.104;12.908;2023-03-22T05:06:27;11.10;99.90
33093;DHT22;19456;46.104;12.908;2023-03-22T05:08:57;11.10;99.90
33093;DHT22;19456;46.104;12.908;2023-03-22T05:11:23;11.10;99.90
33093;DHT22;19456;46.104;12.908;2023-03-22T05:13:54;11.00;99.90
33093;DHT22;19456;46.104;12.908;2023-03-22T05:16:20;11.10;99.90
33093;DHT22;19456;46.104;12.908;2023-03-22T05:18:46;11.20;99.90
33093;DHT22;19456;46.104;12.908;2023-03-22T05:21:12;11.30;99.90
33093;DHT22;19456;46.104;12.908;2023-03-22T05:23:40;11.30;99.90
33093;DHT22;19456;46.104;12.908;2023-03-22T05:26:06;11.10;99.90
33093;DHT22;19456;46.104;12.908;2023-03-22T05:28:32;10.90;99.90
33093;DHT22;19456;46.104;12.908;2023-03-22T05:30:58;10.90;99.90
33093;DHT22;19456;46.104;12.908;2023-03-22T05:33:24;10.80;99.90
33093;DHT22;19456;46.104;12.908;2023-03-22T05:35:49;10.70;99.90
33093;DHT22;19456;46.104;12.908;2023-03-22T05:38:16;10.60;99.90
33093;DHT22;19456;46.104;12.908;2023-03-22T05:40:42;10.70;99.90
33093;DHT22;19456;46.104;12.908;2023-03-22T05:43:08;10.80;99.90
33093;DHT22;19456;46.104;12.908;2023-03-22T05:45:34;11.00;99.90
33093;DHT22;19456;46.104;12.908;2023-03-22T05:48:01;10.90;99.90
33093;DHT22;19456;46.104;12.908;2023-03-22T05:50:27;10.90;99.90
33093;DHT22;19456;46.104;12.908;2023-03-22T05:52:52;10.80;99.90
33093;DHT22;19456;46.104;12.908;2023-03-22T05:55:18;10.70;99.90
33093;DHT22;19456;46.104;12.908;2023-03-22T05:57:44;10.60;99.90
33093;DHT22;19456;46.104;12.908;2023-03-22T06:00:11;10.60;99.90
33093;DHT22;19456;46.104;12.908;2023-03-22T06:02:39;10.70;99.90
33093;DHT22;19456;46.104;12.908;2023-03-22T06:05:05;10.70;99.90
33093;DHT22;19456;46.104;12.908;2023-03-22T06:07:31;10.80;99.90
33093;DHT22;19456;46.104;12.908;2023-03-22T06:09:57;10.80;99.90
33093;DHT22;19456;46.104;12.908;2023-03-22T06:12:22;10.90;99.90
33093;DHT22;19456;46.104;12.908;2023-03-22T06:14:50;11.00;99.90
33093;DHT22;19456;46.104;12.908;2023-03-22T06:17:18;11.20;99.90
33093;DHT22;19456;46.104;12.908;2023-03-22T06:19:44;11.50;99.90
33093;DHT22;19456;46.104;12.908;2023-03-22T06:22:09;11.60;99.90
33093;DHT22;19456;46.104;12.908;2023-03-22T06:24:35;11.70;99.90
33093;DHT22;19456;46.104;12.908;2023-03-22T06:27:00;11.60;99.90
33093;DHT22;19456;46.104;12.908;2023-03-22T06:29:26;11.50;99.90
33093;DHT22;19456;46.104;12.908;2023-03-22T06:31:52;11.60;99.90
33093;DHT22;19456;46.104;12.908;2023-03-22T06:34:17;11.70;99.90
33093;DHT22;19456;46.104;12.908;2023-03-22T06:36:43;11.80;99.90
33093;DHT22;19456;46.104;12.908;2023-03-22T06:39:09;11.70;99.90
33093;DHT22;19456;46.104;12.908;2023-03-22T06:41:34;11.50;99.90
33093;DHT22;19456;46.104;12.908;2023-03-22T06:44:00;11.40;99.90
33093;DHT22;19456;46.104;12.908;2023-03-22T06:46:27;11.30;99.90
33093;DHT22;19456;46.104;12.908;2023-03-22T06:48:53;11.20;99.90
33093;DHT22;19456;46.104;12.908;2023-03-22T06:51:18;11.30;99.90
33093;DHT22;19456;46.104;12.908;2023-03-22T06:53:44;11.40;99.90
33093;DHT22;19456;46.104;12.908;2023-03-22T06:56:10;11.60;99.90
33093;DHT22;19456;46.104;12.908;2023-03-22T06:58:39;11.90;99.90
33093;DHT22;19456;46.104;12.908;2023-03-22T07:01:06;12.20;99.90
33093;DHT22;19456;46.104;12.908;2023-03-22T07:03:35;12.50;99.90
33093;DHT22;19456;46.104;12.908;2023-03-22T07:06:02;12.70;99.90
33093;DHT22;19456;46.104;12.908;2023-03-22T07:08:27;13.00;99.90
33093;DHT22;19456;46.104;12.908;2023-03-22T07:10:53;13.30;99.90
33093;DHT22;19456;46.104;12.908;2023-03-22T07:13:21;13.40;99.90
33093;DHT22;19456;46.104;12.908;2023-03-22T07:15:47;13.50;99.90
33093;DHT22;19456;46.104;12.908;2023-03-22T07:18:13;13.60;99.90
33093;DHT22;19456;46.104;12.908;2023-03-22T07:20:38;13.60;99.90
33093;DHT22;19456;46.104;12.908;2023-03-22T07:23:08;13.60;99.90
33093;DHT22;19456;46.104;12.908;2023-03-22T07:25:35;13.60;99.90
33093;DHT22;19456;46.104;12.908;2023-03-22T07:28:00;13.60;99.90
33093;DHT22;19456;46.104;12.908;2023-03-22T07:30:26;13.80;99.90
33093;DHT22;19456;46.104;12.908;2023-03-22T07:32:51;13.80;99.90
33093;DHT22;19456;46.104;12.908;2023-03-22T07:35:19;13.90;99.90
33093;DHT22;19456;46.104;12.908;2023-03-22T07:37:45;14.00;99.90
33093;DHT22;19456;46.104;12.908;2023-03-22T07:40:11;14.10;99.90
33093;DHT22;19456;46.104;12.908;2023-03-22T07:42:37;14.20;99.90
33093;DHT22;19456;46.104;12.908;2023-03-22T07:45:03;14.30;99.90
33093;DHT22;19456;46.104;12.908;2023-03-22T07:47:29;14.30;99.90
33093;DHT22;19456;46.104;12.908;2023-03-22T07:49:55;14.40;99.90
33093;DHT22;19456;46.104;12.908;2023-03-22T07:52:20;14.50;99.90
33093;DHT22;19456;46.104;12.908;2023-03-22T07:54:46;14.60;99.90
33093;DHT22;19456;46.104;12.908;2023-03-22T07:57:13;14.60;99.90
33093;DHT22;19456;46.104;12.908;2023-03-22T07:59:40;14.70;99.90
33093;DHT22;19456;46.104;12.908;2023-03-22T08:02:09;14.80;99.90
33093;DHT22;19456;46.104;12.908;2023-03-22T08:04:35;14.80;99.90
33093;DHT22;19456;46.104;12.908;2023-03-22T08:07:01;15.00;99.90
33093;DHT22;19456;46.104;12.908;2023-03-22T08:09:27;15.10;99.90
33093;DHT22;19456;46.104;12.908;2023-03-22T08:11:53;15.20;99.90
33093;DHT22;19456;46.104;12.908;2023-03-22T08:14:18;15.30;99.90
33093;DHT22;19456;46.104;12.908;2023-03-22T08:16:44;15.40;99.90
33093;DHT22;19456;46.104;12.908;2023-03-22T08:19:10;15.50;99.90
33093;DHT22;19456;46.104;12.908;2023-03-22T08:21:36;15.50;99.90
33093;DHT22;19456;46.104;12.908;2023-03-22T08:24:02;15.70;99.90
33093;DHT22;19456;46.104;12.908;2023-03-22T08:26:27;15.70;99.90
33093;DHT22;19456;46.104;12.908;2023-03-22T08:28:53;15.90;99.90
33093;DHT22;19456;46.104;12.908;2023-03-22T08:31:19;16.00;99.90
33093;DHT22;19456;46.104;12.908;2023-03-22T08:33:45;16.00;99.90
33093;DHT22;19456;46.104;12.908;2023-03-22T08:36:12;16.20;99.90
33093;DHT22;19456;46.104;12.908;2023-03-22T08:38:37;16.20;99.90
33093;DHT22;19456;46.104;12.908;2023-03-22T08:41:03;16.20;99.90
33093;DHT22;19456;46.104;12.908;2023-03-22T08:43:29;16.40;99.90
33093;DHT22;19456;46.104;12.908;2023-03-22T08:45:55;16.50;99.90
33093;DHT22;19456;46.104;12.908;2023-03-22T08:48:20;16.40;99.90
33093;DHT22;19456;46.104;12.908;2023-03-22T08:50:46;16.40;99.90
33093;DHT22;19456;46.104;12.908;2023-03-22T08:53:21;16.50;99.90
33093;DHT22;19456;46.104;12.908;2023-03-22T08:55:46;16.50;99.90
33093;DHT22;19456;46.104;12.908;2023-03-22T08:58:13;16.50;99.90
33093;DHT22;19456;46.104;12.908;2023-03-22T09:00:38;16.40;99.90
33093;DHT22;19456;46.104;12.908;2023-03-22T09:03:11;16.50;99.90
33093;DHT22;19456;46.104;12.908;2023-03-22T09:48:53;17.50;99.90
33093;DHT22;19456;46.104;12.908;2023-03-22T09:54:35;17.40;99.90
33093;DHT22;19456;46.104;12.908;2023-03-22T09:57:08;17.70;99.90
33093;DHT22;19456;46.104;12.908;2023-03-22T11:36:53;22.70;99.90
33093;DHT22;19456;46.104;12.908;2023-03-22T11:39:30;22.60;99.90
33093;DHT22;19456;46.104;12.908;2023-03-22T11:42:06;22.60;99.90
33093;DHT22;19456;46.104;12.908;2023-03-22T11:44:33;22.70;99.90
33093;DHT22;19456;46.104;12.908;2023-03-22T11:47:00;22.80;99.90
33093;DHT22;19456;46.104;12.908;2023-03-22T11:49:27;22.50;99.90
33093;DHT22;19456;46.104;12.908;2023-03-22T11:51:57;22.60;99.90
33093;DHT22;19456;46.104;12.908;2023-03-22T11:54:33;23.20;99.90
33093;DHT22;19456;46.104;12.908;2023-03-22T11:56:59;23.50;99.90
33093;DHT22;19456;46.104;12.908;2023-03-22T11:59:28;23.60;99.90
33093;DHT22;19456;46.104;12.908;2023-03-22T12:02:04;23.70;99.90
33093;DHT22;19456;46.104;12.908;2023-03-22T12:04:30;23.70;99.90
33093;DHT22;19456;46.104;12.908;2023-03-22T12:06:58;23.70;99.90
33093;DHT22;19456;46.104;12.908;2023-03-22T12:11:56;24.10;99.90
33093;DHT22;19456;46.104;12.908;2023-03-22T12:14:36;24.40;99.90
33093;DHT22;19456;46.104;12.908;2023-03-22T12:17:07;24.60;99.50
33093;DHT22;19456;46.104;12.908;2023-03-22T12:22:15;24.20;98.50
33093;DHT22;19456;46.104;12.908;2023-03-22T12:24:44;24.30;97.90
33093;DHT22;19456;46.104;12.908;2023-03-22T12:30:02;25.10;96.40
33093;DHT22;19456;46.104;12.908;2023-03-22T12:32:30;25.30;96.10
33093;DHT22;19456;46.104;12.908;2023-03-22T12:34:56;25.10;95.00
33093;DHT22;19456;46.104;12.908;2023-03-22T12:37:23;24.80;95.90
33093;DHT22;19456;46.104;12.908;2023-03-22T12:39:55;25.20;96.30
33093;DHT22;19456;46.104;12.908;2023-03-22T12:42:25;25.50;94.80
33093;DHT22;19456;46.104;12.908;2023-03-22T12:44:53;25.60;93.80
33093;DHT22;19456;46.104;12.908;2023-03-22T12:47:24;25.60;93.60
33093;DHT22;19456;46.104;12.908;2023-03-22T12:54:55;25.40;92.80
33093;DHT22;19456;46.104;12.908;2023-03-22T12:57:23;25.60;93.50
33093;DHT22;19456;46.104;12.908;2023-03-22T12:59:50;26.00;92.50
33093;DHT22;19456;46.104;12.908;2023-03-22T13:02:18;26.00;92.50
33093;DHT22;19456;46.104;12.908;2023-03-22T13:04:52;26.20;91.50
33093;DHT22;19456;46.104;12.908;2023-03-22T13:09:56;26.30;91.00
33093;DHT22;19456;46.104;12.908;2023-03-22T13:19:52;27.50;88.80
33093;DHT22;19456;46.104;12.908;2023-03-22T13:22:26;27.00;87.90
33093;DHT22;19456;46.104;12.908;2023-03-22T13:30:52;27.00;88.00
33093;DHT22;19456;46.104;12.908;2023-03-22T13:33:00;27.10;85.70
33093;DHT22;19456;46.104;12.908;2023-03-22T13:38:29;27.90;84.90
33093;DHT22;19456;46.104;12.908;2023-03-22T13:41:04;27.50;83.20
33093;DHT22;19456;46.104;12.908;2023-03-22T13:48:39;28.30;82.20
33093;DHT22;19456;46.104;12.908;2023-03-22T13:59:13;28.90;77.80
33093;DHT22;19456;46.104;12.908;2023-03-22T14:02:18;28.20;76.10
33093;DHT22;19456;46.104;12.908;2023-03-22T14:04:39;28.00;75.90
33093;DHT22;19456;46.104;12.908;2023-03-22T14:10:01;26.90;79.30
33093;DHT22;19456;46.104;12.908;2023-03-22T14:12:31;26.40;80.00
33093;DHT22;19456;46.104;12.908;2023-03-22T14:15:02;26.60;79.70
33093;DHT22;19456;46.104;12.908;2023-03-22T14:17:38;26.60;78.60
33093;DHT22;19456;46.104;12.908;2023-03-22T14:20:07;27.00;79.60
33093;DHT22;19456;46.104;12.908;2023-03-22T14:22:37;27.70;77.60
33093;DHT22;19456;46.104;12.908;2023-03-22T14:25:05;28.20;77.60
33093;DHT22;19456;46.104;12.908;2023-03-22T14:27:32;28.20;75.20
33093;DHT22;19456;46.104;12.908;2023-03-22T14:29:58;27.40;75.10
33093;DHT22;19456;46.104;12.908;2023-03-22T14:32:25;27.30;74.90
33093;DHT22;19456;46.104;12.908;2023-03-22T14:35:37;27.40;75.40
33093;DHT22;19456;46.104;12.908;2023-03-22T14:37:46;27.20;75.10
33093;DHT22;19456;46.104;12.908;2023-03-22T14:40:13;27.20;74.90
33093;DHT22;19456;46.104;12.908;2023-03-22T14:42:41;27.60;74.70
33093;DHT22;19456;46.104;12.908;2023-03-22T14:45:14;27.90;74.00
33093;DHT22;19456;46.104;12.908;2023-03-22T14:47:41;27.60;73.10
33093;DHT22;19456;46.104;12.908;2023-03-22T14:50:11;28.00;74.40
33093;DHT22;19456;46.104;12.908;2023-03-22T14:52:37;28.20;72.80
33093;DHT22;19456;46.104;12.908;2023-03-22T14:55:08;28.00;72.90
33093;DHT22;19456;46.104;12.908;2023-03-22T14:57:42;27.80;72.90
33093;DHT22;19456;46.104;12.908;2023-03-22T15:00:13;27.40;73.10
33093;DHT22;19456;46.104;12.908;2023-03-22T15:02:53;27.70;73.20
33093;DHT22;19456;46.104;12.908;2023-03-22T15:05:23;27.50;72.20
33093;DHT22;19456;46.104;12.908;2023-03-22T15:10:22;27.30;72.60
33093;DHT22;19456;46.104;12.908;2023-03-22T15:12:49;27.10;73.90
33093;DHT22;19456;46.104;12.908;2023-03-22T15:15:15;27.00;73.40
33093;DHT22;19456;46.104;12.908;2023-03-22T15:17:43;27.30;72.50
33093;DHT22;19456;46.104;12.908;2023-03-22T15:20:33;27.50;73.20
33093;DHT22;19456;46.104;12.908;2023-03-22T15:22:57;27.60;72.50
33093;DHT22;19456;46.104;12.908;2023-03-22T15:25:33;27.10;73.40
33093;DHT22;19456;46.104;12.908;2023-03-22T15:27:59;27.00;73.20
33093;DHT22;19456;46.104;12.908;2023-03-22T15:30:25;27.30;73.40
33093;DHT22;19456;46.104;12.908;2023-03-22T15:32:51;27.40;73.10
33093;DHT22;19456;46.104;12.908;2023-03-22T15:35:17;27.20;74.00
33093;DHT22;19456;46.104;12.908;2023-03-22T15:37:46;27.10;72.40
33093;DHT22;19456;46.104;12.908;2023-03-22T15:43:21;26.50;73.30
33093;DHT22;19456;46.104;12.908;2023-03-22T15:46:10;26.20;74.70
33093;DHT22;19456;46.104;12.908;2023-03-22T15:48:41;26.00;75.90
33093;DHT22;19456;46.104;12.908;2023-03-22T15:51:06;25.80;75.20
33093;DHT22;19456;46.104;12.908;2023-03-22T15:53:33;25.50;74.60
33093;DHT22;19456;46.104;12.908;2023-03-22T15:56:00;25.20;75.70
33093;DHT22;19456;46.104;12.908;2023-03-22T15:58:26;24.60;76.70
33093;DHT22;19456;46.104;12.908;2023-03-22T16:00:53;24.10;77.70
33093;DHT22;19456;46.104;12.908;2023-03-22T16:03:19;23.70;78.70
33093;DHT22;19456;46.104;12.908;2023-03-22T16:05:45;23.30;80.00
33093;DHT22;19456;46.104;12.908;2023-03-22T16:08:12;22.90;81.60
33093;DHT22;19456;46.104;12.908;2023-03-22T16:10:39;22.50;83.00
33093;DHT22;19456;46.104;12.908;2023-03-22T16:15:39;22.00;84.30
33093;DHT22;19456;46.104;12.908;2023-03-22T16:18:05;21.70;84.80
33093;DHT22;19456;46.104;12.908;2023-03-22T16:20:30;21.40;85.90
33093;DHT22;19456;46.104;12.908;2023-03-22T16:22:59;21.30;86.40
33093;DHT22;19456;46.104;12.908;2023-03-22T16:25:26;21.20;85.80
33093;DHT22;19456;46.104;12.908;2023-03-22T16:27:51;21.10;86.40
33093;DHT22;19456;46.104;12.908;2023-03-22T16:30:17;21.00;86.90
33093;DHT22;19456;46.104;12.908;2023-03-22T16:32:44;20.90;87.20
33093;DHT22;19456;46.104;12.908;2023-03-22T16:35:14;20.80;87.20
33093;DHT22;19456;46.104;12.908;2023-03-22T16:37:40;20.70;87.20
33093;DHT22;19456;46.104;12.908;2023-03-22T16:40:12;20.60;88.40
33093;DHT22;19456;46.104;12.908;2023-03-22T16:42:38;20.50;89.10
33093;DHT22;19456;46.104;12.908;2023-03-22T16:45:08;20.30;89.70
33093;DHT22;19456;46.104;12.908;2023-03-22T16:47:36;20.10;91.10
33093;DHT22;19456;46.104;12.908;2023-03-22T16:50:01;19.90;93.70
33093;DHT22;19456;46.104;12.908;2023-03-22T16:52:27;19.70;95.50
33093;DHT22;19456;46.104;12.908;2023-03-22T16:54:53;19.50;96.90
33093;DHT22;19456;46.104;12.908;2023-03-22T16:57:20;19.30;98.00
33093;DHT22;19456;46.104;12.908;2023-03-22T16:59:47;19.10;98.70
33093;DHT22;19456;46.104;12.908;2023-03-22T17:02:29;19.00;99.60
33093;DHT22;19456;46.104;12.908;2023-03-22T17:04:56;18.90;99.90
33093;DHT22;19456;46.104;12.908;2023-03-22T17:07:22;18.80;99.90
33093;DHT22;19456;46.104;12.908;2023-03-22T17:09:51;18.70;99.90
33093;DHT22;19456;46.104;12.908;2023-03-22T17:12:22;18.60;99.90
33093;DHT22;19456;46.104;12.908;2023-03-22T17:14:48;18.50;99.90
33093;DHT22;19456;46.104;12.908;2023-03-22T17:17:14;18.40;99.90
33093;DHT22;19456;46.104;12.908;2023-03-22T17:19:41;18.30;99.90
33093;DHT22;19456;46.104;12.908;2023-03-22T17:22:07;18.30;99.90
33093;DHT22;19456;46.104;12.908;2023-03-22T17:24:34;18.20;99.90
33093;DHT22;19456;46.104;12.908;2023-03-22T17:27:00;18.10;99.90
33093;DHT22;19456;46.104;12.908;2023-03-22T17:29:25;18.00;99.90
33093;DHT22;19456;46.104;12.908;2023-03-22T17:31:51;17.90;99.90
33093;DHT22;19456;46.104;12.908;2023-03-22T17:34:17;17.90;99.90
33093;DHT22;19456;46.104;12.908;2023-03-22T17:36:42;17.80;99.90
33093;DHT22;19456;46.104;12.908;2023-03-22T17:39:08;17.70;99.90
33093;DHT22;19456;46.104;12.908;2023-03-22T17:41:34;17.70;99.90
33093;DHT22;19456;46.104;12.908;2023-03-22T17:43:59;17.60;99.90
33093;DHT22;19456;46.104;12.908;2023-03-22T17:46:25;17.50;99.90
33093;DHT22;19456;46.104;12.908;2023-03-22T17:48:53;17.40;99.90
33093;DHT22;19456;46.104;12.908;2023-03-22T17:51:19;17.40;99.90
33093;DHT22;19456;46.104;12.908;2023-03-22T17:53:45;17.30;99.90
33093;DHT22;19456;46.104;12.908;2023-03-22T17:56:10;17.20;99.90
33093;DHT22;19456;46.104;12.908;2023-03-22T17:58:36;17.10;99.90
33093;DHT22;19456;46.104;12.908;2023-03-22T18:01:02;17.10;99.90
33093;DHT22;19456;46.104;12.908;2023-03-22T18:03:28;17.10;99.90
33093;DHT22;19456;46.104;12.908;2023-03-22T18:05:54;17.00;99.90
33093;DHT22;19456;46.104;12.908;2023-03-22T18:08:19;16.90;99.90
33093;DHT22;19456;46.104;12.908;2023-03-22T18:10:45;16.90;99.90
33093;DHT22;19456;46.104;12.908;2023-03-22T18:13:11;16.40;99.90
33093;DHT22;19456;46.104;12.908;2023-03-22T18:15:37;15.90;99.90
33093;DHT22;19456;46.104;12.908;2023-03-22T18:18:02;15.70;99.90
33093;DHT22;19456;46.104;12.908;2023-03-22T18:20:28;15.60;99.90
33093;DHT22;19456;46.104;12.908;2023-03-22T18:22:54;15.70;99.90
33093;DHT22;19456;46.104;12.908;2023-03-22T18:25:20;15.60;99.90
33093;DHT22;19456;46.104;12.908;2023-03-22T18:27:47;15.70;99.90
33093;DHT22;19456;46.104;12.908;2023-03-22T18:30:13;15.60;99.90
33093;DHT22;19456;46.104;12.908;2023-03-22T18:32:39;15.70;99.90
33093;DHT22;19456;46.104;12.908;2023-03-22T18:35:05;15.70;99.90
33093;DHT22;19456;46.104;12.908;2023-03-22T18:37:31;15.80;99.90
33093;DHT22;19456;46.104;12.908;2023-03-22T18:39:58;15.90;99.90
33093;DHT22;19456;46.104;12.908;2023-03-22T18:42:24;15.90;99.90
33093;DHT22;19456;46.104;12.908;2023-03-22T18:44:49;15.80;99.90
33093;DHT22;19456;46.104;12.908;2023-03-22T18:47:15;15.80;99.90
33093;DHT22;19456;46.104;12.908;2023-03-22T18:49:43;15.40;99.90
33093;DHT22;19456;46.104;12.908;2023-03-22T18:52:08;14.90;99.90
33093;DHT22;19456;46.104;12.908;2023-03-22T18:54:34;14.60;99.90
33093;DHT22;19456;46.104;12.908;2023-03-22T18:57:00;14.70;99.90
33093;DHT22;19456;46.104;12.908;2023-03-22T18:59:26;14.70;99.90
33093;DHT22;19456;46.104;12.908;2023-03-22T19:01:54;14.90;99.90
33093;DHT22;19456;46.104;12.908;2023-03-22T19:04:19;14.90;99.90
33093;DHT22;19456;46.104;12.908;2023-03-22T19:06:45;15.00;99.90
33093;DHT22;19456;46.104;12.908;2023-03-22T19:09:10;15.10;99.90
33093;DHT22;19456;46.104;12.908;2023-03-22T19:11:36;15.20;99.90
33093;DHT22;19456;46.104;12.908;2023-03-22T19:14:02;15.30;99.90
33093;DHT22;19456;46.104;12.908;2023-03-22T19:16:27;15.40;99.90
33093;DHT22;19456;46.104;12.908;2023-03-22T19:18:53;15.30;99.90
33093;DHT22;19456;46.104;12.908;2023-03-22T19:21:18;15.50;99.90
33093;DHT22;19456;46.104;12.908;2023-03-22T19:23:44;15.60;99.90
33093;DHT22;19456;46.104;12.908;2023-03-22T19:26:10;15.60;99.90